sensor_id;sensor_type;location;lat;lon;timestamp;pressure;altitude;pressure_sealevel;temperature;humidity
40075;BME280;26529;51.530;11.754;2023-02-04T00:01:38;100791.56;;;19.53;46.09
40075;BME280;26529;51.530;11.754;2023-02-04T00:04:03;100794.31;;;19.52;46.23
40075;BME280;26529;51.530;11.754;2023-02-04T00:06:29;100794.22;;;19.53;45.93
40075;BME280;26529;51.530;11.754;2023-02-04T00:08:55;100805.81;;;19.52;46.32
40075;BME280;26529;51.530;11.754;2023-02-04T00:11:20;100820.06;;;19.51;46.12
40075;BME280;26529;51.530;11.754;2023-02-04T00:13:45;100819.09;;;19.52;46.14
40075;BME280;26529;51.530;11.754;2023-02-04T00:16:11;100822.72;;;19.51;46.30
40075;BME280;26529;51.530;11.754;2023-02-04T00:18:36;100839.63;;;19.50;46.24
40075;BME280;26529;51.530;11.754;2023-02-04T00:21:02;100843.22;;;19.49;46.26
40075;BME280;26529;51.530;11.754;2023-02-04T00:23:27;100847.69;;;19.49;46.32
40075;BME280;26529;51.530;11.754;2023-02-04T00:25:53;100845.09;;;19.47;46.58
40075;BME280;26529;51.530;11.754;2023-02-04T00:28:18;100855.72;;;19.47;46.19
40075;BME280;26529;51.530;11.754;2023-02-04T00:30:44;100853.00;;;19.49;46.32
40075;BME280;26529;51.530;11.754;2023-02-04T00:33:09;100860.13;;;19.48;46.41
40075;BME280;26529;51.530;11.754;2023-02-04T00:35:35;100882.31;;;19.47;46.26
40075;BME280;26529;51.530;11.754;2023-02-04T00:38:02;100932.84;;;19.47;46.15
40075;BME280;26529;51.530;11.754;2023-02-04T00:40:28;100982.47;;;19.48;46.18
40075;BME280;26529;51.530;11.754;2023-02-04T00:42:53;100979.81;;;19.48;46.15
40075;BME280;26529;51.530;11.754;2023-02-04T00:45:19;100988.72;;;19.47;46.34
40075;BME280;26529;51.530;11.754;2023-02-04T00:47:44;100987.00;;;19.46;46.17
40075;BME280;26529;51.530;11.754;2023-02-04T00:50:10;100990.59;;;19.45;46.18
40075;BME280;26529;51.530;11.754;2023-02-04T00:52:35;100996.88;;;19.44;46.24
40075;BME280;26529;51.530;11.754;2023-02-04T00:55:01;101010.16;;;19.44;46.29
40075;BME280;26529;51.530;11.754;2023-02-04T00:57:26;101008.47;;;19.43;46.25
40075;BME280;26529;51.530;11.754;2023-02-04T00:59:52;101018.16;;;19.44;46.22
40075;BME280;26529;51.530;11.754;2023-02-04T01:02:17;101026.97;;;19.45;46.22
40075;BME280;26529;51.530;11.754;2023-02-04T01:04:43;101030.50;;;19.45;46.23
40075;BME280;26529;51.530;11.754;2023-02-04T01:07:08;101036.00;;;19.42;46.15
40075;BME280;26529;51.530;11.754;2023-02-04T01:09:34;101040.50;;;19.40;46.20
40075;BME280;26529;51.530;11.754;2023-02-04T01:11:59;101045.06;;;19.38;46.22
40075;BME280;26529;51.530;11.754;2023-02-04T01:14:25;101051.16;;;19.40;46.19
40075;BME280;26529;51.530;11.754;2023-02-04T01:16:51;101055.63;;;19.39;46.20
40075;BME280;26529;51.530;11.754;2023-02-04T01:19:16;101063.69;;;19.38;46.01
40075;BME280;26529;51.530;11.754;2023-02-04T01:21:42;101068.13;;;19.37;46.25
40075;BME280;26529;51.530;11.754;2023-02-04T01:24:09;101069.00;;;19.38;46.28
40075;BME280;26529;51.530;11.754;2023-02-04T01:26:55;101070.78;;;19.37;46.24
40075;BME280;26529;51.530;11.754;2023-02-04T01:29:20;101086.84;;;19.36;46.17
40075;BME280;26529;51.530;11.754;2023-02-04T01:31:46;101090.44;;;19.35;46.41
40075;BME280;26529;51.530;11.754;2023-02-04T01:34:11;101101.09;;;19.35;46.22
40075;BME280;26529;51.530;11.754;2023-02-04T01:36:37;101101.09;;;19.35;46.30
40075;BME280;26529;51.530;11.754;2023-02-04T01:39:02;101116.16;;;19.34;46.22
40075;BME280;26529;51.530;11.754;2023-02-04T01:41:28;101122.34;;;19.35;46.22
40075;BME280;26529;51.530;11.754;2023-02-04T01:43:53;101129.38;;;19.36;46.01
40075;BME280;26529;51.530;11.754;2023-02-04T01:46:19;101131.25;;;19.34;46.08
40075;BME280;26529;51.530;11.754;2023-02-04T01:48:45;101132.19;;;19.33;46.16
40075;BME280;26529;51.530;11.754;2023-02-04T01:51:13;101140.22;;;19.31;46.19
40075;BME280;26529;51.530;11.754;2023-02-04T01:53:40;101155.28;;;19.32;46.06
40075;BME280;26529;51.530;11.754;2023-02-04T01:56:26;101164.09;;;19.33;46.27
40075;BME280;26529;51.530;11.754;2023-02-04T01:58:53;101166.75;;;19.33;46.09
40075;BME280;26529;51.530;11.754;2023-02-04T02:01:37;101181.00;;;19.32;46.24
40075;BME280;26529;51.530;11.754;2023-02-04T02:04:03;101181.94;;;19.31;46.25
40075;BME280;26529;51.530;11.754;2023-02-04T02:06:32;101181.16;;;19.29;46.29
40075;BME280;26529;51.530;11.754;2023-02-04T02:08:58;101188.19;;;19.30;46.25
40075;BME280;26529;51.530;11.754;2023-02-04T02:11:24;101205.88;;;19.31;46.22
40075;BME280;26529;51.530;11.754;2023-02-04T02:13:51;101209.47;;;19.30;46.14
40075;BME280;26529;51.530;11.754;2023-02-04T02:16:17;101216.50;;;19.31;46.23
40075;BME280;26529;51.530;11.754;2023-02-04T02:18:44;101221.13;;;19.27;46.18
40075;BME280;26529;51.530;11.754;2023-02-04T02:21:13;101235.34;;;19.26;46.53
40075;BME280;26529;51.530;11.754;2023-02-04T02:23:46;101245.09;;;19.25;46.34
40075;BME280;26529;51.530;11.754;2023-02-04T02:26:14;101259.19;;;19.28;46.21
40075;BME280;26529;51.530;11.754;2023-02-04T02:28:40;101258.34;;;19.27;46.24
40075;BME280;26529;51.530;11.754;2023-02-04T02:31:06;101266.38;;;19.25;46.27
40075;BME280;26529;51.530;11.754;2023-02-04T02:33:32;101268.09;;;19.27;46.18
40075;BME280;26529;51.530;11.754;2023-02-04T02:35:58;101276.16;;;19.25;46.33
40075;BME280;26529;51.530;11.754;2023-02-04T02:38:23;101287.66;;;19.25;46.17
40075;BME280;26529;51.530;11.754;2023-02-04T02:40:49;101290.38;;;19.24;46.32
40075;BME280;26529;51.530;11.754;2023-02-04T02:43:22;101300.16;;;19.23;46.26
40075;BME280;26529;51.530;11.754;2023-02-04T02:45:48;101296.56;;;19.24;46.17
40075;BME280;26529;51.530;11.754;2023-02-04T02:48:14;101303.78;;;19.22;46.31
40075;BME280;26529;51.530;11.754;2023-02-04T02:50:40;101302.81;;;19.23;46.22
40075;BME280;26529;51.530;11.754;2023-02-04T02:53:11;101323.22;;;19.23;46.22
40075;BME280;26529;51.530;11.754;2023-02-04T02:55:38;101319.63;;;19.24;46.19
40075;BME280;26529;51.530;11.754;2023-02-04T02:58:04;101325.88;;;19.23;46.37
40075;BME280;26529;51.530;11.754;2023-02-04T03:00:29;101319.72;;;19.22;46.15
40075;BME280;26529;51.530;11.754;2023-02-04T03:03:07;101326.88;;;19.20;46.15
40075;BME280;26529;51.530;11.754;2023-02-04T03:05:38;101328.63;;;19.21;46.21
40075;BME280;26529;51.530;11.754;2023-02-04T03:08:07;101332.19;;;19.20;46.33
40075;BME280;26529;51.530;11.754;2023-02-04T03:10:34;101349.91;;;19.21;46.17
40075;BME280;26529;51.530;11.754;2023-02-04T03:13:01;101344.66;;;19.20;46.17
40075;BME280;26529;51.530;11.754;2023-02-04T03:15:28;101348.16;;;19.20;46.31
40075;BME280;26529;51.530;11.754;2023-02-04T03:17:54;101353.47;;;19.20;46.38
40075;BME280;26529;51.530;11.754;2023-02-04T03:20:23;101350.03;;;19.18;46.30
40075;BME280;26529;51.530;11.754;2023-02-04T03:22:50;101357.06;;;19.19;46.37
40075;BME280;26529;51.530;11.754;2023-02-04T03:25:16;101353.63;;;19.17;46.25
40075;BME280;26529;51.530;11.754;2023-02-04T03:27:42;101356.28;;;19.17;46.30
40075;BME280;26529;51.530;11.754;2023-02-04T03:30:08;101357.22;;;19.16;46.44
40075;BME280;26529;51.530;11.754;2023-02-04T03:32:34;101357.22;;;19.16;46.53
40075;BME280;26529;51.530;11.754;2023-02-04T03:34:59;101356.34;;;19.16;46.48
40075;BME280;26529;51.530;11.754;2023-02-04T03:37:25;101361.66;;;19.16;46.29
40075;BME280;26529;51.530;11.754;2023-02-04T03:39:50;101367.88;;;19.16;46.17
40075;BME280;26529;51.530;11.754;2023-02-04T03:42:16;101379.34;;;19.17;46.28
40075;BME280;26529;51.530;11.754;2023-02-04T03:44:42;101394.44;;;19.16;46.30
40075;BME280;26529;51.530;11.754;2023-02-04T03:47:07;101403.38;;;19.15;46.48
40075;BME280;26529;51.530;11.754;2023-02-04T03:49:33;101409.59;;;19.14;46.38
40075;BME280;26529;51.530;11.754;2023-02-04T03:52:00;101410.53;;;19.13;46.35
40075;BME280;26529;51.530;11.754;2023-02-04T03:54:25;101414.13;;;19.12;46.29
40075;BME280;26529;51.530;11.754;2023-02-04T03:56:51;101432.66;;;19.14;46.20
40075;BME280;26529;51.530;11.754;2023-02-04T03:59:16;101443.34;;;19.12;46.33
40075;BME280;26529;51.530;11.754;2023-02-04T04:01:41;101448.75;;;19.10;46.41
40075;BME280;26529;51.530;11.754;2023-02-04T04:04:07;101452.28;;;19.11;46.21
40075;BME280;26529;51.530;11.754;2023-02-04T04:06:32;101454.94;;;19.11;46.33
40075;BME280;26529;51.530;11.754;2023-02-04T04:08:58;101465.50;;;19.13;46.33
40075;BME280;26529;51.530;11.754;2023-02-04T04:11:23;101465.63;;;19.09;46.62
40075;BME280;26529;51.530;11.754;2023-02-04T04:13:49;101484.19;;;19.11;46.22
40075;BME280;26529;51.530;11.754;2023-02-04T04:16:14;101479.78;;;19.10;46.31
40075;BME280;26529;51.530;11.754;2023-02-04T04:18:40;101493.94;;;19.10;46.24
40075;BME280;26529;51.530;11.754;2023-02-04T04:21:05;101503.72;;;19.10;46.32
40075;BME280;26529;51.530;11.754;2023-02-04T04:23:30;101501.06;;;19.10;46.22
40075;BME280;26529;51.530;11.754;2023-02-04T04:25:56;101505.50;;;19.09;46.30
40075;BME280;26529;51.530;11.754;2023-02-04T04:28:21;101507.38;;;19.07;46.29
40075;BME280;26529;51.530;11.754;2023-02-04T04:30:47;101509.16;;;19.07;46.47
40075;BME280;26529;51.530;11.754;2023-02-04T04:33:12;101522.44;;;19.07;46.37
40075;BME280;26529;51.530;11.754;2023-02-04T04:35:38;101525.09;;;19.07;46.42
40075;BME280;26529;51.530;11.754;2023-02-04T04:38:03;101538.41;;;19.07;46.37
40075;BME280;26529;51.530;11.754;2023-02-04T04:40:29;101536.66;;;19.06;46.12
40075;BME280;26529;51.530;11.754;2023-02-04T04:42:55;101550.84;;;19.06;46.25
40075;BME280;26529;51.530;11.754;2023-02-04T04:45:20;101556.16;;;19.06;46.34
40075;BME280;26529;51.530;11.754;2023-02-04T04:47:46;101552.63;;;19.06;46.16
40075;BME280;26529;51.530;11.754;2023-02-04T04:50:12;101557.94;;;19.06;46.49
40075;BME280;26529;51.530;11.754;2023-02-04T04:52:37;101554.50;;;19.04;46.31
40075;BME280;26529;51.530;11.754;2023-02-04T04:55:03;101572.16;;;19.05;46.39
40075;BME280;26529;51.530;11.754;2023-02-04T04:57:30;101576.69;;;19.03;46.34
40075;BME280;26529;51.530;11.754;2023-02-04T04:59:55;101581.91;;;19.04;46.25
40075;BME280;26529;51.530;11.754;2023-02-04T05:02:21;101590.81;;;19.03;46.21
40075;BME280;26529;51.530;11.754;2023-02-04T05:04:46;101590.78;;;19.05;46.28
40075;BME280;26529;51.530;11.754;2023-02-04T05:07:12;101585.56;;;19.02;46.28
40075;BME280;26529;51.530;11.754;2023-02-04T05:09:37;101582.91;;;19.02;46.47
40075;BME280;26529;51.530;11.754;2023-02-04T05:12:03;101587.34;;;19.01;46.24
40075;BME280;26529;51.530;11.754;2023-02-04T05:14:28;101593.53;;;19.02;46.16
40075;BME280;26529;51.530;11.754;2023-02-04T05:16:54;101606.84;;;19.02;46.34
40075;BME280;26529;51.530;11.754;2023-02-04T05:19:19;101597.97;;;19.01;46.14
40075;BME280;26529;51.530;11.754;2023-02-04T05:21:45;101609.59;;;18.98;46.28
40075;BME280;26529;51.530;11.754;2023-02-04T05:24:10;101617.63;;;18.97;46.38
40075;BME280;26529;51.530;11.754;2023-02-04T05:26:36;101626.44;;;18.99;46.34
40075;BME280;26529;51.530;11.754;2023-02-04T05:29:01;101630.88;;;18.98;46.25
40075;BME280;26529;51.530;11.754;2023-02-04T05:31:27;101638.84;;;18.98;46.34
40075;BME280;26529;51.530;11.754;2023-02-04T05:33:53;101649.47;;;18.98;46.35
40075;BME280;26529;51.530;11.754;2023-02-04T05:36:19;101653.06;;;18.97;46.29
40075;BME280;26529;51.530;11.754;2023-02-04T05:38:44;101653.13;;;18.96;46.53
40075;BME280;26529;51.530;11.754;2023-02-04T05:41:10;101654.00;;;18.96;46.25
40075;BME280;26529;51.530;11.754;2023-02-04T05:43:35;101665.56;;;18.95;46.27
40075;BME280;26529;51.530;11.754;2023-02-04T05:46:01;101668.22;;;18.95;46.23
40075;BME280;26529;51.530;11.754;2023-02-04T05:48:26;101669.94;;;18.96;46.33
40075;BME280;26529;51.530;11.754;2023-02-04T05:50:52;101679.78;;;18.94;46.32
40075;BME280;26529;51.530;11.754;2023-02-04T05:53:17;101679.84;;;18.93;46.09
40075;BME280;26529;51.530;11.754;2023-02-04T05:55:43;101678.91;;;18.94;46.35
40075;BME280;26529;51.530;11.754;2023-02-04T05:58:08;101679.78;;;18.94;46.08
40075;BME280;26529;51.530;11.754;2023-02-04T06:00:34;101684.16;;;18.95;46.36
40075;BME280;26529;51.530;11.754;2023-02-04T06:02:59;101698.38;;;18.94;46.26
40075;BME280;26529;51.530;11.754;2023-02-04T06:05:25;101695.44;;;19.01;46.22
40075;BME280;26529;51.530;11.754;2023-02-04T06:07:50;101698.78;;;19.07;45.83
40075;BME280;26529;51.530;11.754;2023-02-04T06:10:16;101706.44;;;19.15;45.89
40075;BME280;26529;51.530;11.754;2023-02-04T06:12:41;101713.34;;;19.19;45.39
40075;BME280;26529;51.530;11.754;2023-02-04T06:15:07;101721.09;;;19.25;45.73
40075;BME280;26529;51.530;11.754;2023-02-04T06:17:32;101715.66;;;19.29;45.81
40075;BME280;26529;51.530;11.754;2023-02-04T06:19:58;101720.03;;;19.30;45.64
40075;BME280;26529;51.530;11.754;2023-02-04T06:22:23;101728.81;;;19.32;45.76
40075;BME280;26529;51.530;11.754;2023-02-04T06:24:50;101725.22;;;19.33;45.78
40075;BME280;26529;51.530;11.754;2023-02-04T06:27:16;101732.25;;;19.34;45.72
40075;BME280;26529;51.530;11.754;2023-02-04T06:29:54;101742.06;;;19.33;45.77
40075;BME280;26529;51.530;11.754;2023-02-04T06:32:20;101736.78;;;19.32;45.84
40075;BME280;26529;51.530;11.754;2023-02-04T06:34:46;101742.06;;;19.33;45.68
40075;BME280;26529;51.530;11.754;2023-02-04T06:37:11;101741.16;;;19.33;45.62
40075;BME280;26529;51.530;11.754;2023-02-04T06:39:38;101747.41;;;19.32;45.84
40075;BME280;26529;51.530;11.754;2023-02-04T06:42:04;101738.50;;;19.33;45.82
40075;BME280;26529;51.530;11.754;2023-02-04T06:44:29;101742.91;;;19.34;45.71
40075;BME280;26529;51.530;11.754;2023-02-04T06:46:55;101748.09;;;19.37;45.64
40075;BME280;26529;51.530;11.754;2023-02-04T06:49:21;101754.03;;;19.44;45.53
40075;BME280;26529;51.530;11.754;2023-02-04T06:51:46;101756.53;;;19.48;45.49
40075;BME280;26529;51.530;11.754;2023-02-04T06:54:13;101753.56;;;19.55;45.39
40075;BME280;26529;51.530;11.754;2023-02-04T06:56:38;101760.50;;;19.59;45.36
40075;BME280;26529;51.530;11.754;2023-02-04T06:59:04;101761.19;;;19.64;45.48
40075;BME280;26529;51.530;11.754;2023-02-04T07:01:30;101759.25;;;19.68;45.01
40075;BME280;26529;51.530;11.754;2023-02-04T07:03:55;101762.72;;;19.70;45.16
40075;BME280;26529;51.530;11.754;2023-02-04T07:06:21;101777.75;;;19.71;45.23
40075;BME280;26529;51.530;11.754;2023-02-04T07:08:46;101782.97;;;19.74;45.26
40075;BME280;26529;51.530;11.754;2023-02-04T07:11:14;101794.84;;;19.65;43.46
40075;BME280;26529;51.530;11.754;2023-02-04T07:13:39;101796.78;;;18.93;42.07
40075;BME280;26529;51.530;11.754;2023-02-04T07:16:05;101808.81;;;18.30;41.26
40075;BME280;26529;51.530;11.754;2023-02-04T07:18:31;101816.03;;;18.76;45.63
40075;BME280;26529;51.530;11.754;2023-02-04T07:20:57;101811.25;;;19.32;43.97
40075;BME280;26529;51.530;11.754;2023-02-04T07:23:22;101821.59;;;19.62;43.77
40075;BME280;26529;51.530;11.754;2023-02-04T07:25:50;101834.25;;;19.77;43.16
40075;BME280;26529;51.530;11.754;2023-02-04T07:28:18;101827.84;;;19.82;43.33
40075;BME280;26529;51.530;11.754;2023-02-04T07:30:44;101843.31;;;19.94;43.39
40075;BME280;26529;51.530;11.754;2023-02-04T07:33:09;101840.91;;;20.10;43.30
40075;BME280;26529;51.530;11.754;2023-02-04T07:35:35;101853.44;;;20.08;43.65
40075;BME280;26529;51.530;11.754;2023-02-04T07:38:03;101841.59;;;20.15;43.49
40075;BME280;26529;51.530;11.754;2023-02-04T07:40:28;101850.97;;;20.24;43.61
40075;BME280;26529;51.530;11.754;2023-02-04T07:42:54;101851.75;;;20.47;43.63
40075;BME280;26529;51.530;11.754;2023-02-04T07:45:21;101850.34;;;20.59;43.40
40075;BME280;26529;51.530;11.754;2023-02-04T07:47:46;101858.66;;;20.72;43.49
40075;BME280;26529;51.530;11.754;2023-02-04T07:50:12;101857.09;;;20.26;43.02
40075;BME280;26529;51.530;11.754;2023-02-04T07:52:37;101862.28;;;20.50;43.87
40075;BME280;26529;51.530;11.754;2023-02-04T07:55:04;101866.66;;;20.72;44.11
40075;BME280;26529;51.530;11.754;2023-02-04T07:57:29;101864.66;;;20.77;44.20
40075;BME280;26529;51.530;11.754;2023-02-04T07:59:55;101865.13;;;20.87;44.29
40075;BME280;26529;51.530;11.754;2023-02-04T08:02:21;101866.31;;;21.00;44.45
40075;BME280;26529;51.530;11.754;2023-02-04T08:04:47;101873.63;;;21.14;44.59
40075;BME280;26529;51.530;11.754;2023-02-04T08:07:12;101882.38;;;21.18;44.68
40075;BME280;26529;51.530;11.754;2023-02-04T08:09:38;101881.41;;;21.19;44.42
40075;BME280;26529;51.530;11.754;2023-02-04T08:12:03;101891.19;;;21.20;44.64
40075;BME280;26529;51.530;11.754;2023-02-04T08:14:29;101899.63;;;21.30;44.98
40075;BME280;26529;51.530;11.754;2023-02-04T08:16:55;101897.94;;;21.47;44.71
40075;BME280;26529;51.530;11.754;2023-02-04T08:19:20;101907.53;;;21.51;44.99
40075;BME280;26529;51.530;11.754;2023-02-04T08:21:47;101912.44;;;21.41;45.21
40075;BME280;26529;51.530;11.754;2023-02-04T08:24:13;101908.41;;;21.32;44.52
40075;BME280;26529;51.530;11.754;2023-02-04T08:26:40;101906.88;;;21.46;44.41
40075;BME280;26529;51.530;11.754;2023-02-04T08:29:06;101912.59;;;21.57;44.43
40075;BME280;26529;51.530;11.754;2023-02-04T08:31:31;101915.88;;;21.62;44.37
40075;BME280;26529;51.530;11.754;2023-02-04T08:33:57;101922.31;;;21.58;44.54
40075;BME280;26529;51.530;11.754;2023-02-04T08:36:22;101932.03;;;21.21;44.04
40075;BME280;26529;51.530;11.754;2023-02-04T08:38:48;101936.22;;;21.07;44.46
40075;BME280;26529;51.530;11.754;2023-02-04T08:41:13;101939.41;;;20.95;43.84
40075;BME280;26529;51.530;11.754;2023-02-04T08:43:39;101939.84;;;20.85;43.18
40075;BME280;26529;51.530;11.754;2023-02-04T08:46:05;101935.63;;;20.80;43.26
40075;BME280;26529;51.530;11.754;2023-02-04T08:48:31;101947.16;;;20.80;44.00
40075;BME280;26529;51.530;11.754;2023-02-04T08:50:56;101949.03;;;20.78;43.95
40075;BME280;26529;51.530;11.754;2023-02-04T08:53:22;101951.94;;;20.72;43.13
40075;BME280;26529;51.530;11.754;2023-02-04T08:55:47;101964.88;;;20.81;43.77
40075;BME280;26529;51.530;11.754;2023-02-04T08:58:12;101968.13;;;20.90;43.29
40075;BME280;26529;51.530;11.754;2023-02-04T09:00:38;101968.63;;;20.98;42.97
40075;BME280;26529;51.530;11.754;2023-02-04T09:03:03;101969.22;;;21.05;43.27
40075;BME280;26529;51.530;11.754;2023-02-04T09:05:29;101970.09;;;21.05;43.34
40075;BME280;26529;51.530;11.754;2023-02-04T09:07:55;101971.03;;;21.04;43.38
40075;BME280;26529;51.530;11.754;2023-02-04T09:10:20;101979.03;;;21.04;43.46
40075;BME280;26529;51.530;11.754;2023-02-04T09:12:45;101978.22;;;21.02;43.67
40075;BME280;26529;51.530;11.754;2023-02-04T09:15:11;101988.03;;;21.01;43.76
40075;BME280;26529;51.530;11.754;2023-02-04T09:17:37;101993.41;;;21.00;43.50
40075;BME280;26529;51.530;11.754;2023-02-04T09:20:04;101991.53;;;21.02;43.53
40075;BME280;26529;51.530;11.754;2023-02-04T09:22:30;101993.22;;;21.05;43.65
40075;BME280;26529;51.530;11.754;2023-02-04T09:24:55;101997.59;;;21.06;43.63
40075;BME280;26529;51.530;11.754;2023-02-04T09:27:21;102001.81;;;21.11;43.50
40075;BME280;26529;51.530;11.754;2023-02-04T09:29:46;102004.34;;;21.14;43.46
40075;BME280;26529;51.530;11.754;2023-02-04T09:32:12;102008.66;;;21.17;43.49
40075;BME280;26529;51.530;11.754;2023-02-04T09:34:37;102017.56;;;21.18;43.50
40075;BME280;26529;51.530;11.754;2023-02-04T09:37:03;102016.81;;;21.14;43.57
40075;BME280;26529;51.530;11.754;2023-02-04T09:39:28;102031.16;;;21.11;43.63
40075;BME280;26529;51.530;11.754;2023-02-04T09:41:54;102030.34;;;21.09;43.75
40075;BME280;26529;51.530;11.754;2023-02-04T09:44:22;102028.63;;;21.08;43.59
40075;BME280;26529;51.530;11.754;2023-02-04T09:46:51;102032.09;;;21.10;43.67
40075;BME280;26529;51.530;11.754;2023-02-04T09:49:17;102032.88;;;21.12;43.49
40075;BME280;26529;51.530;11.754;2023-02-04T09:51:43;102043.41;;;21.15;43.53
40075;BME280;26529;51.530;11.754;2023-02-04T09:54:15;102047.69;;;21.20;43.40
40075;BME280;26529;51.530;11.754;2023-02-04T09:56:41;102046.75;;;21.21;43.39
40075;BME280;26529;51.530;11.754;2023-02-04T09:59:18;102054.75;;;21.21;43.63
40075;BME280;26529;51.530;11.754;2023-02-04T10:01:59;102055.53;;;21.23;43.49
40075;BME280;26529;51.530;11.754;2023-02-04T10:04:25;102050.28;;;21.21;43.50
40075;BME280;26529;51.530;11.754;2023-02-04T10:06:52;102052.13;;;21.19;43.40
40075;BME280;26529;51.530;11.754;2023-02-04T10:09:17;102051.28;;;21.19;43.58
40075;BME280;26529;51.530;11.754;2023-02-04T10:11:46;102054.81;;;21.19;43.41
40075;BME280;26529;51.530;11.754;2023-02-04T10:14:14;102053.03;;;21.20;43.67
40075;BME280;26529;51.530;11.754;2023-02-04T10:16:41;102054.63;;;21.24;43.49
40075;BME280;26529;51.530;11.754;2023-02-04T10:19:15;102052.47;;;21.32;43.35
40075;BME280;26529;51.530;11.754;2023-02-04T10:21:46;102061.94;;;21.39;43.03
40075;BME280;26529;51.530;11.754;2023-02-04T10:24:17;102063.44;;;21.45;42.89
40075;BME280;26529;51.530;11.754;2023-02-04T10:26:44;102066.06;;;21.47;42.95
40075;BME280;26529;51.530;11.754;2023-02-04T10:29:14;102060.94;;;21.42;43.12
40075;BME280;26529;51.530;11.754;2023-02-04T10:31:42;102063.88;;;21.36;43.50
40075;BME280;26529;51.530;11.754;2023-02-04T10:36:39;102065.03;;;21.30;43.39
40075;BME280;26529;51.530;11.754;2023-02-04T10:39:10;102061.63;;;21.26;43.34
40075;BME280;26529;51.530;11.754;2023-02-04T10:41:36;102062.63;;;21.24;43.13
40075;BME280;26529;51.530;11.754;2023-02-04T10:44:10;102060.09;;;21.21;43.38
40075;BME280;26529;51.530;11.754;2023-02-04T10:46:36;102060.97;;;21.21;43.51
40075;BME280;26529;51.530;11.754;2023-02-04T10:49:16;102058.19;;;21.23;43.13
40075;BME280;26529;51.530;11.754;2023-02-04T10:51:42;102064.22;;;21.28;43.42
40075;BME280;26529;51.530;11.754;2023-02-04T10:54:11;102067.53;;;21.33;43.33
40075;BME280;26529;51.530;11.754;2023-02-04T10:57:03;102069.66;;;21.46;43.42
40075;BME280;26529;51.530;11.754;2023-02-04T10:59:32;102069.41;;;21.52;43.12
40075;BME280;26529;51.530;11.754;2023-02-04T11:01:59;102063.25;;;21.50;43.13
40075;BME280;26529;51.530;11.754;2023-02-04T11:04:25;102064.19;;;21.49;43.07
40075;BME280;26529;51.530;11.754;2023-02-04T11:06:53;102071.41;;;21.47;43.23
40075;BME280;26529;51.530;11.754;2023-02-04T11:09:19;102066.22;;;21.44;43.20
40075;BME280;26529;51.530;11.754;2023-02-04T11:11:49;102063.66;;;21.40;43.35
40075;BME280;26529;51.530;11.754;2023-02-04T11:16:48;102072.19;;;21.49;42.75
40075;BME280;26529;51.530;11.754;2023-02-04T11:19:14;102072.84;;;21.54;42.90
40075;BME280;26529;51.530;11.754;2023-02-04T11:21:43;102073.56;;;21.58;42.41
40075;BME280;26529;51.530;11.754;2023-02-04T11:26:46;102075.13;;;21.42;43.08
40075;BME280;26529;51.530;11.754;2023-02-04T11:37:02;102089.22;;;21.25;43.30
40075;BME280;26529;51.530;11.754;2023-02-04T11:42:03;102082.50;;;21.37;43.29
40075;BME280;26529;51.530;11.754;2023-02-04T11:44:29;102082.63;;;21.34;43.46
40075;BME280;26529;51.530;11.754;2023-02-04T11:46:55;102092.72;;;21.27;43.05
40075;BME280;26529;51.530;11.754;2023-02-04T11:49:23;102094.56;;;21.25;43.29
40075;BME280;26529;51.530;11.754;2023-02-04T11:51:49;102092.09;;;21.21;43.34
40075;BME280;26529;51.530;11.754;2023-02-04T11:54:17;102094.09;;;21.15;43.28
40075;BME280;26529;51.530;11.754;2023-02-04T11:56:46;102096.97;;;21.11;43.31
40075;BME280;26529;51.530;11.754;2023-02-04T11:59:19;102097.94;;;21.08;43.01
40075;BME280;26529;51.530;11.754;2023-02-04T12:01:45;102095.97;;;21.13;43.09
40075;BME280;26529;51.530;11.754;2023-02-04T12:04:23;102099.09;;;21.23;42.81
40075;BME280;26529;51.530;11.754;2023-02-04T12:07:00;102091.81;;;21.27;43.20
40075;BME280;26529;51.530;11.754;2023-02-04T12:09:27;102096.09;;;21.31;43.16
40075;BME280;26529;51.530;11.754;2023-02-04T12:12:00;102089.69;;;21.35;43.12
40075;BME280;26529;51.530;11.754;2023-02-04T12:14:36;102092.16;;;21.40;43.07
40075;BME280;26529;51.530;11.754;2023-02-04T12:17:16;102098.22;;;21.44;42.78
40075;BME280;26529;51.530;11.754;2023-02-04T12:19:41;102095.41;;;21.47;42.93
40075;BME280;26529;51.530;11.754;2023-02-04T12:22:07;102098.88;;;21.49;42.93
40075;BME280;26529;51.530;11.754;2023-02-04T12:24:34;102099.69;;;21.51;42.99
40075;BME280;26529;51.530;11.754;2023-02-04T12:26:59;102105.03;;;21.51;43.04
40075;BME280;26529;51.530;11.754;2023-02-04T12:29:25;102097.94;;;21.50;42.74
40075;BME280;26529;51.530;11.754;2023-02-04T12:31:50;102098.28;;;21.42;43.10
40075;BME280;26529;51.530;11.754;2023-02-04T12:34:16;102101.44;;;21.31;43.59
40075;BME280;26529;51.530;11.754;2023-02-04T12:36:42;102109.03;;;21.20;43.58
40075;BME280;26529;51.530;11.754;2023-02-04T12:39:07;102107.44;;;21.15;43.68
40075;BME280;26529;51.530;11.754;2023-02-04T12:41:35;102112.97;;;21.11;43.81
40075;BME280;26529;51.530;11.754;2023-02-04T12:44:01;102112.22;;;21.07;43.82
40075;BME280;26529;51.530;11.754;2023-02-04T12:46:28;102109.75;;;21.03;43.85
40075;BME280;26529;51.530;11.754;2023-02-04T12:48:54;102112.53;;;20.99;43.55
40075;BME280;26529;51.530;11.754;2023-02-04T12:51:19;102106.41;;;20.97;43.76
40075;BME280;26529;51.530;11.754;2023-02-04T12:53:46;102106.47;;;20.96;43.76
40075;BME280;26529;51.530;11.754;2023-02-04T12:56:13;102103.94;;;20.93;43.75